• Join FlightAware (Why Join?)
  • Login
  • US Flag 
11:40AM EST


 

Airport Tracker/Info


-or-


 

Live Flight TrackerFlight Track Log ✈ MMN26 ✈ 02-May-2013 ✈ KMPV - KBED

Flight Track Log - Related Links

Times and Time Zones

All times are in EDT time to prevent confusion due to time zone crossing. See the MMN26 flight status page for this flight to view local times or setup timezone preferences in your user account.

Time Position Orientation Groundspeed Altitude Reporting Facility
EDT Latitude Longitude Course Direction KTS MPH feet Rate Location/Type
04:17PM 44.0056 -72.4125 151° Southeast  Level Estimated
04:17PM 44.1781 -72.5039 152° Southeast 312 359 7,400  Level Boston Center
04:18PM 43.9395 -72.3628 152° Southeast  Level Estimated
04:18PM 44.1133 -72.4864 169° South 225 259 9,600  Level Boston Center
04:19PM 44.0531 -72.4517 158° South 265 305 11,200 1,700 Climbing Boston Center
04:20PM 43.9531 -72.3883 155° Southeast 317 365 13,000 1,050 Climbing Boston Center
04:21PM 43.8592 -72.3250 154° Southeast 349 402 13,300 1,000 Climbing Boston Center
04:22PM 43.7631 -72.2533 152° Southeast 373 429 15,000 850 Climbing Boston Center
04:23PM 43.6589 -72.1789 153° Southeast 399 459 15,000  Level Boston Center
04:24PM 43.5608 -72.1133 154° Southeast 406 467 15,000  Level Boston Center
04:25PM 43.4606 -72.0425 153° Southeast 400 460 15,000 -950 Level Boston Center
04:26PM 43.3519 -71.9661 153° Southeast 406 467 13,100 -2,100 Descending Boston Center
04:27PM 43.2597 -71.9011 153° Southeast 381 438 10,800 -1,900 Descending Boston Center
04:28PM 43.1761 -71.8450 154° Southeast 350 403 9,300 -1,600 Descending Boston Center
04:29PM 43.0989 -71.8117 163° South 302 348 7,600 -1,350 Descending Boston Center
04:30PM 43.0300 -71.7839 164° South 291 335 6,600 -1,050 Descending Boston Center
04:31PM 42.9464 -71.7564 166° South 286 329 5,500 -955 Descending Boston Center
04:32PM 42.8797 -71.7289 163° South 281 323 4,500 -727 Descending Boston Center
04:33PM 42.7856 -71.6961 166° South 281 323 3,900 -250 Descending Boston Center
04:34PM 42.7167 -71.6686 164° South 275 316 4,000  Climbing Boston Center
04:35PM 42.6539 -71.6214 151° Southeast 261 300 3,900 -100 Descending Boston Center
04:36PM 42.5828 -71.5914 163° South 262 302 3,800 -550 Descending Boston Center
04:37PM 42.5117 -71.5614 163° South 268 308 2,800 -812 Descending Boston Center
04:39PM 42.4833 -71.4667 112° Southeast 199 229 2,000 -472 Descending KA90
04:40PM 42.4833 -71.4167 90° East 149 171 1,800 -222 Descending KA90
04:42PM 42.4667 -71.2833 114° Southeast  Level FlightAware Approximate
04:49PM 42.4699 -71.2890 114° Southeast  Level Estimated
04:50PM 42.4667 -71.2833 114° Southeast  Level FlightAware Approximate
04:51PM 42.4699 -71.2890 114° Southeast  Level Estimated
04:52PM 42.4667 -71.2833 114° Southeast  Level FlightAware Approximate
04:53PM 42.4699 -71.2890 114° Southeast  Level Estimated
04:54PM 42.4667 -71.2833 114° Southeast  Level FlightAware Approximate